Time;durP1;ratioP1;P1;durP2;ratioP2;P2;SDS_P1;SDS_P2;PMS_P1;PMS_P2;Temp;Humidity;BMP_temperature;BMP_pressure;BME280_temperature;BME280_humidity;BME280_pressure;Samples;Min_cycle;Max_cycle;Signal;HPM_P1;HPM_P2
2021/04/16 00:00:28;;;;;;;69.63;41.33;;;51.90;2227.20;;;;;;4980214;28;20030;-86
2021/04/16 00:02:54;;;;;;;55.67;34.47;;;52.10;2227.20;;;;;;4980468;28;20121;-86
2021/04/16 00:05:20;;;;;;;42.72;29.35;;;52.10;2227.20;;;;;;4996381;28;20129;-85
2021/04/16 00:07:46;;;;;;;58.20;36.15;;;52.00;2227.20;;;;;;4980239;28;20030;-86
2021/04/16 00:10:17;;;;;;;64.95;39.78;;;52.00;2227.20;;;;;;4980014;28;20085;-86
2021/04/16 00:12:43;;;;;;;53.83;33.45;;;52.00;2227.20;;;;;;4979964;28;20117;-86
2021/04/16 00:15:12;;;;;;;49.40;29.00;;;52.00;2227.20;;;;;;4979978;28;20057;-85
2021/04/16 00:17:38;;;;;;;46.25;30.65;;;52.10;2227.20;;;;;;4980333;28;20069;-86
2021/04/16 00:20:07;;;;;;;43.85;28.77;;;52.00;2227.20;;;;;;4979830;28;20420;-85
2021/04/16 00:22:34;;;;;;;48.70;29.95;;;51.90;2227.20;;;;;;4977678;28;20030;-86
2021/04/16 00:25:00;;;;;;;44.65;28.63;;;51.80;2227.20;;;;;;4997001;28;20030;-84
2021/04/16 00:27:26;;;;;;;44.70;27.95;;;52.00;2227.20;;;;;;4979649;28;20177;-84
2021/04/16 00:29:52;;;;;;;35.08;24.85;;;51.80;2227.20;;;;;;4979925;28;20465;-86
2021/04/16 00:32:18;;;;;;;33.13;22.95;;;52.00;2227.20;;;;;;4979935;28;20473;-85
2021/04/16 00:34:44;;;;;;;32.15;22.70;;;52.00;2227.20;;;;;;4979925;28;20386;-85
2021/04/16 00:37:09;;;;;;;33.20;22.92;;;52.00;2227.20;;;;;;4984957;28;20046;-86
2021/04/16 00:39:35;;;;;;;27.33;19.98;;;52.10;2227.20;;;;;;5016453;28;20480;-86
2021/04/16 00:42:01;;;;;;;26.20;19.58;;;51.90;2227.20;;;;;;5015405;28;20470;-86
2021/04/16 00:44:27;;;;;;;30.35;19.88;;;51.80;2227.20;;;;;;4997496;28;20034;-86
2021/04/16 00:47:00;;;;;;;31.40;20.95;;;51.70;2227.20;;;;;;4999161;28;20026;-89
2021/04/16 00:49:31;;;;;;;32.53;21.65;;;51.80;2227.20;;;;;;4998070;28;20026;-88
2021/04/16 00:52:03;;;;;;;41.10;24.02;;;51.80;2227.20;;;;;;4998801;28;20026;-86
2021/04/16 00:54:33;;;;;;;41.92;26.50;;;51.60;2227.20;;;;;;4999401;28;20077;-87
2021/04/16 00:57:00;;;;;;;37.50;24.38;;;51.80;2227.20;;;;;;4998676;28;20080;-88
2021/04/16 00:59:28;;;;;;;61.30;34.88;;;51.80;2227.20;;;;;;4998407;28;20029;-87
2021/04/16 01:01:59;;;;;;;43.55;27.45;;;51.80;2227.20;;;;;;4998508;28;20062;-87
2021/04/16 01:04:27;;;;;;;46.20;29.08;;;51.70;2227.20;;;;;;4997615;28;20141;-87
2021/04/16 01:06:53;;;;;;;38.15;26.25;;;51.70;2227.20;;;;;;4998425;28;20026;-86
2021/04/16 01:09:19;;;;;;;41.58;26.98;;;51.70;2227.20;;;;;;4998907;28;20523;-86
2021/04/16 01:11:46;;;;;;;35.97;23.65;;;51.80;2227.20;;;;;;4998274;28;20466;-86
2021/04/16 01:14:12;;;;;;;39.17;26.30;;;51.80;2227.20;;;;;;4998323;28;20141;-86
2021/04/16 01:16:39;;;;;;;43.92;27.38;;;51.80;2227.20;;;;;;4999737;28;20026;-85
2021/04/16 01:19:11;;;;;;;47.42;30.23;;;52.00;2227.20;;;;;;4998175;28;20037;-86
2021/04/16 01:21:51;;;;;;;47.95;29.48;;;51.90;2227.20;;;;;;4998242;28;20029;-85
2021/04/16 01:24:28;;;;;;;43.92;29.17;;;52.00;2227.20;;;;;;4999611;28;20041;-86
2021/04/16 01:26:54;;;;;;;42.55;27.20;;;51.80;2227.20;;;;;;4998098;28;20034;-84
2021/04/16 01:29:21;;;;;;;45.05;26.98;;;51.80;2227.20;;;;;;4998217;28;20033;-88
2021/04/16 01:31:47;;;;;;;40.80;27.30;;;51.80;2227.20;;;;;;4997974;28;20034;-84
2021/04/16 01:34:16;;;;;;;49.10;30.55;;;51.80;2227.20;;;;;;4997734;28;20109;-83
2021/04/16 01:36:42;;;;;;;36.97;26.95;;;51.70;2227.20;;;;;;4997580;28;20022;-86
2021/04/16 01:39:08;;;;;;;35.63;23.88;;;76.90;2227.20;;;;;;4998199;28;20073;-84
2021/04/16 01:41:34;;;;;;;34.60;24.25;;;51.70;2227.20;;;;;;4997771;28;20045;-84
2021/04/16 01:44:08;;;;;;;31.55;20.70;;;51.60;2227.20;;;;;;4998234;28;20038;-86
2021/04/16 01:46:54;;;;;;;36.70;23.80;;;51.60;2227.20;;;;;;4998068;28;20030;-86
2021/04/16 01:49:20;;;;;;;32.72;22.52;;;51.30;2227.20;;;;;;4997656;28;20032;-84
2021/04/16 01:51:47;;;;;;;29.95;20.17;;;51.30;2227.20;;;;;;4997674;28;20029;-87
2021/04/16 01:54:19;;;;;;;30.05;19.05;;;51.40;2227.20;;;;;;4997666;28;20385;-85
2021/04/16 01:56:47;;;;;;;31.05;19.23;;;51.60;2227.20;;;;;;4997551;28;20026;-85
2021/04/16 01:59:17;;;;;;;37.63;21.58;;;51.60;2227.20;;;;;;4998137;28;20037;-84
2021/04/16 02:01:45;;;;;;;38.92;23.77;;;51.60;2227.20;;;;;;4997414;28;20037;-85
2021/04/16 02:04:13;;;;;;;41.95;26.65;;;51.60;2227.20;;;;;;4997870;28;20057;-85
2021/04/16 02:06:39;;;;;;;43.83;30.40;;;51.70;2227.20;;;;;;4997766;28;20445;-85
2021/04/16 02:09:11;;;;;;;47.42;28.27;;;51.60;2227.20;;;;;;4997183;28;20026;-85
2021/04/16 02:11:37;;;;;;;36.15;24.58;;;51.60;2227.20;;;;;;4997587;28;20033;-86
2021/04/16 02:14:05;;;;;;;32.72;19.83;;;51.60;2227.20;;;;;;4997476;28;20116;-82
2021/04/16 02:16:32;;;;;;;38.25;22.40;;;51.80;2227.20;;;;;;4997113;28;20026;-85
2021/04/16 02:18:58;;;;;;;30.60;19.65;;;52.10;2227.20;;;;;;4997495;28;20577;-85
2021/04/16 02:21:24;;;;;;;26.92;18.77;;;51.40;2227.20;;;;;;4997489;28;20026;-87
2021/04/16 02:23:52;;;;;;;27.33;17.58;;;51.40;2227.20;;;;;;4995830;28;20030;-86
2021/04/16 02:26:18;;;;;;;36.22;20.42;;;51.40;2227.20;;;;;;4997549;28;20044;-84
2021/04/16 02:28:44;;;;;;;30.98;20.38;;;51.40;2227.20;;;;;;4996360;28;20446;-86
2021/04/16 02:31:09;;;;;;;33.63;22.60;;;51.50;2227.20;;;;;;4997114;28;20458;-84
2021/04/16 02:33:35;;;;;;;26.33;17.77;;;51.60;2227.20;;;;;;4997058;28;20121;-86
2021/04/16 02:36:01;;;;;;;33.10;19.20;;;51.70;2227.20;;;;;;4996792;28;20029;-87
2021/04/16 02:38:27;;;;;;;35.17;22.73;;;51.70;2227.20;;;;;;4996767;28;20072;-85
2021/04/16 02:40:53;;;;;;;43.97;28.15;;;51.70;2227.20;;;;;;4997160;28;20557;-85
2021/04/16 02:43:19;;;;;;;38.63;26.30;;;51.40;2227.20;;;;;;4996791;28;20120;-84
2021/04/16 02:45:45;;;;;;;42.30;25.75;;;51.40;2227.20;;;;;;4996741;28;20046;-87
2021/04/16 02:48:12;;;;;;;42.83;27.33;;;51.30;2227.20;;;;;;4997120;28;20037;-87
2021/04/16 02:50:38;;;;;;;38.65;22.98;;;51.30;2227.20;;;;;;5002282;28;20068;-86
2021/04/16 02:53:03;;;;;;;29.38;20.40;;;51.30;2227.20;;;;;;5001348;28;20037;-85
2021/04/16 02:55:29;;;;;;;33.15;20.80;;;51.30;2227.20;;;;;;4996996;28;20037;-86
2021/04/16 02:57:55;;;;;;;35.67;22.13;;;51.20;2227.20;;;;;;5013129;28;20077;-88
2021/04/16 03:00:26;;;;;;;34.72;22.42;;;51.20;2227.20;;;;;;4996688;28;20382;-85
2021/04/16 03:02:53;;;;;;;28.77;20.73;;;26.50;2201.60;;;;;;4997340;28;20061;-84
2021/04/16 03:05:19;;;;;;;30.73;21.48;;;51.30;2227.20;;;;;;4996493;28;20069;-85
2021/04/16 03:07:45;;;;;;;43.05;23.73;;;51.40;2227.20;;;;;;4996732;28;20088;-85
2021/04/16 03:10:13;;;;;;;32.42;21.63;;;51.40;2227.20;;;;;;4996977;28;20446;-88
2021/04/16 03:12:39;;;;;;;33.78;22.40;;;51.20;2227.20;;;;;;4996729;28;20113;-84
2021/04/16 03:15:06;;;;;;;32.53;21.52;;;51.20;2227.20;;;;;;4996585;28;20026;-85
2021/04/16 03:17:33;;;;;;;48.60;29.08;;;51.20;2227.20;;;;;;4996871;28;20022;-84
2021/04/16 03:20:00;;;;;;;44.70;29.35;;;51.20;2227.20;;;;;;4996567;28;20466;-86
2021/04/16 03:22:26;;;;;;;53.17;29.80;;;51.40;2227.20;;;;;;4994994;28;20026;-85
2021/04/16 03:24:52;;;;;;;43.10;28.10;;;26.50;2201.60;;;;;;5012610;28;20030;-86
2021/04/16 03:27:18;;;;;;;32.85;21.13;;;26.50;2201.60;;;;;;4995746;28;20088;-87
2021/04/16 03:29:44;;;;;;;32.45;20.00;;;26.50;2201.60;;;;;;4999894;28;20026;-85
2021/04/16 03:32:10;;;;;;;33.03;20.83;;;26.20;2201.60;;;;;;5000009;28;20433;-87
2021/04/16 03:34:36;;;;;;;29.42;19.63;;;25.90;2201.60;;;;;;5000112;28;20450;-88
2021/04/16 03:37:02;;;;;;;31.23;20.75;;;25.80;2201.60;;;;;;4999782;28;20402;-86
2021/04/16 03:39:28;;;;;;;60.45;29.38;;;26.10;2201.60;;;;;;4999913;28;20036;-85
2021/04/16 03:41:54;;;;;;;78.80;39.33;;;26.10;2201.60;;;;;;4999830;28;20052;-84
2021/04/16 03:44:19;;;;;;;56.00;27.40;;;26.10;2201.60;;;;;;5016292;28;20478;-84
2021/04/16 03:46:45;;;;;;;68.75;33.35;;;26.20;2201.60;;;;;;4999609;28;20030;-84
2021/04/16 03:49:11;;;;;;;35.08;22.25;;;26.40;2201.60;;;;;;4999741;28;20026;-85
2021/04/16 03:51:50;;;;;;;50.50;29.83;;;26.20;2201.60;;;;;;4999711;28;20034;-86
2021/04/16 03:54:16;;;;;;;36.95;24.05;;;26.20;2201.60;;;;;;5015950;28;20026;-88
2021/04/16 03:56:42;;;;;;;38.53;23.58;;;26.20;2201.60;;;;;;4999735;28;20025;-87
2021/04/16 03:59:07;;;;;;;35.20;23.90;;;26.10;2201.60;;;;;;4999375;28;20072;-87
2021/04/16 04:01:33;;;;;;;34.90;23.73;;;26.10;2201.60;;;;;;4999605;28;20030;-86
2021/04/16 04:03:59;;;;;;;36.55;22.42;;;26.30;2201.60;;;;;;4999485;28;20034;-86
2021/04/16 04:06:25;;;;;;;43.35;30.02;;;26.20;2201.60;;;;;;4999295;28;20054;-87
2021/04/16 04:08:50;;;;;;;48.88;30.95;;;26.40;2201.60;;;;;;4999376;28;20057;-84
2021/04/16 04:11:16;;;;;;;46.35;27.73;;;26.20;2201.60;;;;;;4999406;28;20026;-84
2021/04/16 04:13:42;;;;;;;41.50;27.25;;;26.30;2201.60;;;;;;4999337;28;20030;-84
2021/04/16 04:16:08;;;;;;;44.22;25.40;;;26.10;2201.60;;;;;;4999494;28;20040;-84
2021/04/16 04:18:34;;;;;;;41.35;26.70;;;26.00;2201.60;;;;;;4999549;28;20087;-85
2021/04/16 04:21:00;;;;;;;57.05;34.17;;;25.90;2201.60;;;;;;5015427;28;20030;-84
2021/04/16 04:23:27;;;;;;;44.83;31.38;;;25.90;2201.60;;;;;;4999951;28;20033;-83
2021/04/16 04:25:53;;;;;;;59.33;38.65;;;26.10;2201.60;;;;;;4999057;28;20089;-88
2021/04/16 04:28:19;;;;;;;44.40;27.85;;;26.00;2201.60;;;;;;4999022;28;20061;-84
2021/04/16 04:30:45;;;;;;;38.75;26.65;;;26.10;2201.60;;;;;;4999196;28;20065;-85
2021/04/16 04:33:11;;;;;;;42.45;29.65;;;26.20;2201.60;;;;;;4999069;28;20046;-84
2021/04/16 04:35:37;;;;;;;53.92;32.28;;;26.20;2201.60;;;;;;4998853;28;20037;-83
2021/04/16 04:38:04;;;;;;;46.33;29.45;;;26.20;2201.60;;;;;;4998991;28;20050;-85
2021/04/16 04:40:30;;;;;;;44.33;30.17;;;26.30;2201.60;;;;;;4997952;28;20026;-84
2021/04/16 04:42:55;;;;;;;38.03;25.77;;;26.50;2201.60;;;;;;4998450;28;20026;-85
2021/04/16 04:45:23;;;;;;;55.08;35.28;;;51.30;2227.20;;;;;;5015248;28;20030;-85
2021/04/16 04:47:49;;;;;;;74.95;43.95;;;51.30;2227.20;;;;;;4998485;28;20038;-85
2021/04/16 04:50:15;;;;;;;74.55;46.53;;;51.50;2227.20;;;;;;4998443;28;20104;-84
2021/04/16 04:52:42;;;;;;;73.45;44.60;;;51.50;2227.20;;;;;;4999032;28;20052;-84
2021/04/16 04:55:38;;;;;;;69.60;43.72;;;51.60;2227.20;;;;;;4998454;28;20040;-84
2021/04/16 04:58:04;;;;;;;62.50;36.50;;;51.60;2227.20;;;;;;5013983;28;20125;-83
2021/04/16 05:00:31;;;;;;;58.45;38.38;;;51.60;2227.20;;;;;;4998482;28;20473;-86
2021/04/16 05:02:57;;;;;;;72.07;46.70;;;51.80;2227.20;;;;;;4998364;28;20029;-85
2021/04/16 05:05:24;;;;;;;53.00;33.25;;;51.60;2227.20;;;;;;4998420;28;20026;-85
2021/04/16 05:08:19;;;;;;;45.58;32.15;;;51.40;2227.20;;;;;;5146506;27;20377;-85
2021/04/16 05:10:45;;;;;;;68.03;44.40;;;51.20;2227.20;;;;;;5127056;27;20502;-86
2021/04/16 05:13:11;;;;;;;49.60;33.40;;;51.20;2227.20;;;;;;5110040;28;20020;-85
2021/04/16 05:15:36;;;;;;;75.57;50.47;;;51.20;2227.20;;;;;;5111279;28;20016;-87
2021/04/16 05:18:02;;;;;;;73.03;48.08;;;51.30;2227.20;;;;;;5110433;28;20032;-85
2021/04/16 05:20:28;;;;;;;64.13;42.03;;;51.30;2227.20;;;;;;5111118;28;20027;-84
2021/04/16 05:22:57;;;;;;;66.07;41.40;;;51.30;2227.20;;;;;;5110739;28;20019;-85
2021/04/16 05:25:23;;;;;;;112.47;64.13;;;51.30;2227.20;;;;;;5110752;28;20034;-87
2021/04/16 05:27:48;;;;;;;96.05;59.42;;;51.30;2227.20;;;;;;5110015;28;20040;-86
2021/04/16 05:30:15;;;;;;;100.05;65.03;;;51.40;2227.20;;;;;;5110573;28;20024;-87
2021/04/16 05:32:41;;;;;;;94.95;52.67;;;51.20;2227.20;;;;;;5110636;28;20026;-84
2021/04/16 05:35:08;;;;;;;102.47;59.92;;;51.30;2227.20;;;;;;5110573;28;20111;-85
2021/04/16 05:37:34;;;;;;;80.13;49.05;;;51.40;2227.20;;;;;;5110866;28;20032;-85
2021/04/16 05:40:00;;;;;;;63.45;35.47;;;51.40;2227.20;;;;;;5110440;28;20424;-87
2021/04/16 05:42:25;;;;;;;62.47;40.30;;;51.50;2227.20;;;;;;5110563;28;20028;-86
2021/04/16 05:44:54;;;;;;;50.30;32.28;;;51.60;2227.20;;;;;;5110248;28;20027;-84
2021/04/16 05:47:20;;;;;;;62.60;40.55;;;51.70;2227.20;;;;;;5110404;28;20032;-85
2021/04/16 05:49:45;;;;;;;65.70;37.08;;;51.60;2227.20;;;;;;5110554;28;20560;-85
2021/04/16 05:52:11;;;;;;;69.25;41.60;;;51.70;2227.20;;;;;;5110213;28;20024;-86
2021/04/16 05:54:38;;;;;;;70.13;40.55;;;51.90;2227.20;;;;;;5110643;28;20031;-85
2021/04/16 05:57:04;;;;;;;56.75;36.65;;;52.10;2227.20;;;;;;5110303;28;20051;-85
2021/04/16 05:59:30;;;;;;;44.22;27.75;;;76.80;2227.20;;;;;;5110012;28;20357;-86
2021/04/16 06:01:56;;;;;;;49.53;28.88;;;76.90;2227.20;;;;;;5110348;28;20020;-87
2021/04/16 06:04:24;;;;;;;57.03;32.10;;;76.90;2227.20;;;;;;5110429;28;20027;-85
2021/04/16 06:06:50;;;;;;;53.63;35.72;;;77.00;2227.20;;;;;;5115561;28;20044;-84
2021/04/16 06:09:16;;;;;;;46.92;31.77;;;77.10;2227.20;;;;;;5117434;28;20034;-84
2021/04/16 06:11:42;;;;;;;44.22;27.60;;;77.10;2227.20;;;;;;5110940;28;20028;-84
2021/04/16 06:14:08;;;;;;;47.25;33.40;;;77.30;2227.20;;;;;;5109663;28;20451;-84
2021/04/16 06:16:34;;;;;;;47.42;27.58;;;77.30;2227.20;;;;;;5109882;28;20382;-85
2021/04/16 06:19:00;;;;;;;49.38;32.67;;;77.50;2227.20;;;;;;5101134;28;20072;-85
2021/04/16 06:21:26;;;;;;;45.10;28.67;;;77.60;2227.20;;;;;;5095782;28;20028;-85
2021/04/16 06:23:52;;;;;;;43.08;28.13;;;77.70;2227.20;;;;;;5095990;28;20028;-86
2021/04/16 06:26:18;;;;;;;51.13;30.55;;;102.40;2227.20;;;;;;5096361;28;20035;-84
2021/04/16 06:28:45;;;;;;;44.92;27.35;;;102.50;2227.20;;;;;;5095998;28;20055;-85
2021/04/16 06:31:13;;;;;;;36.80;26.25;;;102.50;2227.20;;;;;;5096007;28;20035;-85
2021/04/16 06:33:38;;;;;;;50.60;30.10;;;102.80;2227.20;;;;;;5095705;28;20034;-85
2021/04/16 06:36:07;;;;;;;45.08;30.17;;;102.90;2227.20;;;;;;5095846;28;20028;-84
2021/04/16 06:38:40;;;;;;;44.75;28.33;;;103.00;2227.20;;;;;;5095994;28;20399;-85
2021/04/16 06:41:23;;;;;;;38.35;28.67;;;103.10;2227.20;;;;;;5095752;28;20468;-84
2021/04/16 06:44:01;;;;;;;44.28;27.77;;;103.20;2227.20;;;;;;5095707;28;20049;-85
2021/04/16 06:46:39;;;;;;;41.90;25.88;;;103.30;2227.20;;;;;;5096081;28;20055;-85
2021/04/16 06:49:13;;;;;;;36.40;24.77;;;103.30;2227.20;;;;;;5095366;28;20036;-83
2021/04/16 06:51:49;;;;;;;36.03;25.67;;;128.10;2252.80;;;;;;5095227;28;20070;-83
2021/04/16 06:54:22;;;;;;;30.35;22.27;;;128.20;2252.80;;;;;;5095310;28;20118;-83
2021/04/16 06:56:51;;;;;;;48.78;32.05;;;128.30;2252.80;;;;;;5096862;28;20035;-84
2021/04/16 06:59:24;;;;;;;30.33;22.35;;;128.50;2252.80;;;;;;5096695;28;20089;-83
2021/04/16 07:01:59;;;;;;;27.90;19.27;;;128.80;2252.80;;;;;;5095026;28;20020;-83
2021/04/16 07:04:57;;;;;;;28.13;20.48;;;153.60;2252.80;;;;;;5096119;28;20032;-84
2021/04/16 07:07:45;;;;;;;32.85;22.55;;;153.80;2252.80;;;;;;5094669;28;20052;-85
2021/04/16 07:10:19;;;;;;;35.83;26.40;;;128.90;2252.80;;;;;;5095145;28;20024;-84
2021/04/16 07:12:46;;;;;;;42.15;28.48;;;128.90;2252.80;;;;;;5095048;28;20023;-81
2021/04/16 07:15:38;;;;;;;41.13;27.00;;;153.60;2252.80;;;;;;5092558;28;20028;-84
2021/04/16 07:18:05;;;;;;;38.42;25.52;;;153.80;2252.80;;;;;;5095389;28;20089;-79
2021/04/16 07:20:30;;;;;;;33.45;24.08;;;153.90;2252.80;;;;;;5094510;28;20035;-76
2021/04/16 07:22:58;;;;;;;33.00;24.83;;;154.20;2252.80;;;;;;5093334;28;20028;-78
2021/04/16 07:25:36;;;;;;;34.42;24.08;;;154.50;2252.80;;;;;;5095336;28;20031;-77
2021/04/16 07:28:14;;;;;;;32.60;22.85;;;179.20;2252.80;;;;;;5095832;28;20039;-74
2021/04/16 07:30:46;;;;;;;32.22;23.77;;;179.30;2252.80;;;;;;5092633;28;20101;-76
2021/04/16 07:33:26;;;;;;;35.83;26.45;;;179.50;2252.80;;;;;;5093042;28;20028;-77
2021/04/16 07:36:13;;;;;;;33.10;24.33;;;179.60;2252.80;;;;;;5092289;28;20027;-77
2021/04/16 07:38:40;;;;;;;38.17;24.67;;;179.70;2252.80;;;;;;5093694;28;20042;-76
2021/04/16 07:41:25;;;;;;;34.83;26.92;;;179.80;2252.80;;;;;;5100761;28;20039;-76
2021/04/16 07:43:54;;;;;;;32.75;25.00;;;179.90;2252.80;;;;;;5094127;28;20024;-77
2021/04/16 07:46:25;;;;;;;33.85;25.30;;;180.10;2252.80;;;;;;5093071;28;20031;-75
2021/04/16 07:48:52;;;;;;;31.15;24.92;;;204.90;2252.80;;;;;;5094191;28;21149;-76
2021/04/16 07:51:29;;;;;;;31.05;24.55;;;205.20;2252.80;;;;;;5092091;28;20035;-78
2021/04/16 07:54:12;;;;;;;23.20;18.10;;;205.20;2227.20;;;;;;5092070;28;20034;-78
2021/04/16 07:56:38;;;;;;;27.50;18.27;;;205.00;2176.00;;;;;;5094321;28;20051;-80
2021/04/16 07:59:16;;;;;;;24.48;18.63;;;205.00;2252.80;;;;;;5092060;28;20031;-79
2021/04/16 08:01:51;;;;;;;26.52;19.23;;;205.10;2252.80;;;;;;5094160;28;20020;-77
2021/04/16 08:04:19;;;;;;;18.20;14.95;;;205.40;2252.80;;;;;;5091984;28;20028;-78
2021/04/16 08:06:51;;;;;;;20.42;15.18;;;205.40;2176.00;;;;;;5093317;28;20509;-79
2021/04/16 08:09:26;;;;;;;25.52;17.52;;;205.60;2150.40;;;;;;5092446;28;20020;-79
2021/04/16 08:12:01;;;;;;;23.27;15.82;;;230.40;2150.40;;;;;;5091384;28;20498;-78
2021/04/16 08:14:33;;;;;;;25.20;15.63;;;230.50;2022.40;;;;;;5092685;28;20024;-78
2021/04/16 08:17:16;;;;;;;37.53;23.90;;;230.80;2099.20;;;;;;5091824;28;20032;-78
2021/04/16 08:19:43;;;;;;;22.15;15.75;;;230.90;2022.40;;;;;;5090492;28;20031;-80
2021/04/16 08:22:13;;;;;;;48.78;30.77;;;231.10;1996.80;;;;;;5093181;28;20028;-77
2021/04/16 08:24:52;;;;;;;36.47;24.48;;;231.10;1996.80;;;;;;5108710;28;20024;-78
2021/04/16 08:27:41;;;;;;;28.45;17.42;;;231.30;1894.40;;;;;;5091721;28;20043;-78
2021/04/16 08:30:28;;;;;;;22.27;16.08;;;256.30;1868.80;;;;;;5093972;28;20024;-77
2021/04/16 08:33:23;;;;;;;23.08;15.45;;;256.50;1792.00;;;;;;5093702;28;20027;-80
2021/04/16 08:35:53;;;;;;;20.75;13.75;;;256.70;1792.00;;;;;;5092815;28;20093;-77
2021/04/16 08:38:22;;;;;;;22.33;13.70;;;256.90;1766.40;;;;;;5092859;28;20457;-75
2021/04/16 08:40:52;;;;;;;18.77;11.55;;;281.60;1715.20;;;;;;5092443;28;20026;-74
2021/04/16 08:43:47;;;;;;;19.90;12.07;;;281.80;1689.60;;;;;;5092903;28;20020;-75
2021/04/16 08:46:36;;;;;;;16.77;9.68;;;281.80;1638.40;;;;;;5091904;28;20028;-74
2021/04/16 08:49:30;;;;;;;17.90;10.68;;;282.00;1612.80;;;;;;5095282;28;20020;-74
2021/04/16 08:52:16;;;;;;;13.90;9.45;;;282.20;1612.80;;;;;;5086033;28;20040;-74
2021/04/16 08:54:44;;;;;;;14.80;9.50;;;282.30;1587.20;;;;;;5109293;28;20032;-74
2021/04/16 08:57:16;;;;;;;33.97;24.70;;;282.30;1612.80;;;;;;5109791;28;20024;-74
2021/04/16 08:59:56;;;;;;;13.30;9.50;;;282.20;1561.60;;;;;;5094116;28;20456;-74
2021/04/16 09:02:26;;;;;;;12.48;9.20;;;282.20;1536.00;;;;;;5093711;28;20467;-74
2021/04/16 09:05:02;;;;;;;23.20;14.07;;;282.20;1561.60;;;;;;5109697;28;20034;-74
2021/04/16 09:07:44;;;;;;;15.38;11.80;;;282.40;1561.60;;;;;;5108878;28;20105;-75
2021/04/16 09:10:16;;;;;;;17.80;12.45;;;282.50;1484.80;;;;;;5089281;28;20113;-74
2021/04/16 09:12:46;;;;;;;14.60;10.17;;;307.20;1536.00;;;;;;5090391;28;20502;-74
2021/04/16 09:15:21;;;;;;;15.10;9.30;;;307.50;1510.40;;;;;;5090550;28;20099;-74
2021/04/16 09:17:52;;;;;;;14.68;9.68;;;307.60;1510.40;;;;;;5104793;28;20032;-74
2021/04/16 09:20:26;;;;;;;13.83;10.17;;;307.60;1484.80;;;;;;5088556;28;20547;-74
2021/04/16 09:22:57;;;;;;;22.30;13.50;;;307.50;1459.20;;;;;;5090095;28;20065;-74
2021/04/16 09:25:32;;;;;;;23.40;16.60;;;307.90;1510.40;;;;;;5106231;28;20028;-74
2021/04/16 09:28:22;;;;;;;22.17;13.77;;;307.70;1484.80;;;;;;5089198;28;20044;-74
2021/04/16 09:30:49;;;;;;;34.42;19.85;;;307.60;1510.40;;;;;;5087309;28;20024;-74
2021/04/16 09:33:43;;;;;;;25.25;16.95;;;307.60;1484.80;;;;;;5101582;28;20024;-74
2021/04/16 09:36:29;;;;;;;18.67;13.43;;;307.60;1510.40;;;;;;5086646;28;20086;-74
2021/04/16 09:39:10;;;;;;;30.90;17.65;;;307.60;1484.80;;;;;;5101690;28;20119;-74
2021/04/16 09:41:37;;;;;;;17.92;10.93;;;307.50;1510.40;;;;;;5092771;28;20078;-74
2021/04/16 09:44:28;;;;;;;11.73;8.63;;;307.80;1459.20;;;;;;5108294;28;20050;-75
2021/04/16 09:47:05;;;;;;;22.92;14.40;;;307.80;1459.20;;;;;;5106109;28;20032;-74
2021/04/16 09:49:35;;;;;;;12.63;9.65;;;307.60;1459.20;;;;;;5090526;28;20443;-74
2021/04/16 09:52:27;;;;;;;16.10;8.57;;;307.50;1433.60;;;;;;5091729;28;20533;-74
2021/04/16 09:54:53;;;;;;;11.95;8.23;;;307.40;1459.20;;;;;;5093668;28;20028;-74
2021/04/16 09:57:39;;;;;;;13.27;8.00;;;307.30;1459.20;;;;;;5096608;28;20028;-74
2021/04/16 10:00:38;;;;;;;15.35;9.43;;;307.40;1484.80;;;;;;5093504;28;20486;-75
2021/04/16 10:03:21;;;;;;;18.80;13.88;;;307.30;1484.80;;;;;;5095217;28;20482;-74
2021/04/16 10:05:47;;;;;;;11.30;6.53;;;307.80;1510.40;;;;;;5107643;28;20039;-74
2021/04/16 10:08:29;;;;;;;9.27;5.95;;;307.90;1408.00;;;;;;5096850;28;20040;-73
2021/04/16 10:11:06;;;;;;;12.17;9.20;;;333.00;1459.20;;;;;;5097317;28;20025;-74
2021/04/16 10:13:35;;;;;;;13.07;6.15;;;333.40;1433.60;;;;;;5096914;28;20383;-74
2021/04/16 10:16:02;;;;;;;12.60;6.30;;;333.20;1459.20;;;;;;5095763;28;20371;-73
2021/04/16 10:18:37;;;;;;;14.93;6.75;;;333.00;1356.80;;;;;;5095352;28;20520;-75
2021/04/16 10:21:03;;;;;;;22.88;12.57;;;333.20;1382.40;;;;;;5095585;28;20455;-75
2021/04/16 10:23:39;;;;;;;25.23;16.15;;;333.70;1382.40;;;;;;5095451;28;20039;-74
2021/04/16 10:27:27;;;;;;;19.73;12.63;;;333.40;1382.40;;;;;;5095098;28;20047;-74
2021/04/16 10:56:20;;;;;;;12.10;8.25;;;358.50;1305.60;;;;;;5096019;28;20031;-76
2021/04/16 12:40:09;;;;;;;13.15;9.27;;;486.90;1024.00;;;;;;5094563;28;20134;-75
2021/04/16 12:42:35;;;;;;;8.63;5.65;;;486.70;1024.00;;;;;;5092993;28;20081;-74
2021/04/16 12:45:00;;;;;;;13.43;8.88;;;461.30;1075.20;;;;;;5092747;28;20102;-75
2021/04/16 12:47:30;;;;;;;23.30;18.08;;;435.90;1024.00;;;;;;5092756;28;20051;-75
2021/04/16 12:49:58;;;;;;;11.60;8.63;;;410.00;1075.20;;;;;;5093281;28;20017;-75
2021/04/16 12:52:24;;;;;;;19.15;10.98;;;435.50;1100.80;;;;;;5093766;28;20024;-75
2021/04/16 12:54:52;;;;;;;17.05;11.95;;;460.80;1100.80;;;;;;5094121;28;20037;-75
2021/04/16 12:57:32;;;;;;;10.38;7.25;;;461.20;1100.80;;;;;;5094327;28;20092;-75
2021/04/16 12:59:58;;;;;;;12.05;8.30;;;461.10;1024.00;;;;;;5093794;28;20494;-75
2021/04/16 13:02:30;;;;;;;24.23;14.35;;;461.40;1049.60;;;;;;5093275;28;20114;-75
2021/04/16 13:04:57;;;;;;;15.75;9.38;;;486.40;1049.60;;;;;;5093975;28;20071;-75
2021/04/16 13:07:24;;;;;;;13.45;9.02;;;486.60;1049.60;;;;;;5093826;28;20127;-75
2021/04/16 13:09:51;;;;;;;16.77;12.32;;;486.80;1024.00;;;;;;5093890;28;20059;-75
2021/04/16 13:12:17;;;;;;;11.98;7.65;;;486.60;972.80;;;;;;5093875;28;20093;-74
2021/04/16 13:14:42;;;;;;;16.50;12.52;;;461.70;998.40;;;;;;5092689;28;20024;-75
2021/04/16 13:17:14;;;;;;;10.63;6.32;;;461.60;998.40;;;;;;5093946;28;20119;-75
2021/04/16 13:19:42;;;;;;;8.90;6.13;;;461.40;972.80;;;;;;5092567;28;20028;-75
2021/04/16 13:22:15;;;;;;;6.95;4.28;;;461.20;998.40;;;;;;5093547;28;20403;-75
2021/04/16 13:24:43;;;;;;;10.60;6.18;;;461.40;1075.20;;;;;;5092548;28;20024;-75
2021/04/16 13:27:12;;;;;;;8.23;5.72;;;461.70;1049.60;;;;;;5093345;28;20516;-75
2021/04/16 13:29:39;;;;;;;14.32;5.10;;;461.10;972.80;;;;;;5096750;28;20433;-75
2021/04/16 13:32:09;;;;;;;12.45;6.30;;;461.20;998.40;;;;;;5097857;28;20028;-74
2021/04/16 13:34:39;;;;;;;9.73;6.28;;;461.30;972.80;;;;;;5096644;28;20024;-75
2021/04/16 13:37:05;;;;;;;10.73;7.68;;;461.20;998.40;;;;;;5097061;28;20027;-74
2021/04/16 13:39:31;;;;;;;12.35;6.88;;;461.50;1024.00;;;;;;5096431;28;20024;-75
2021/04/16 13:41:57;;;;;;;11.10;7.88;;;486.40;1024.00;;;;;;5095262;28;20020;-76
2021/04/16 13:44:23;;;;;;;11.75;6.65;;;486.50;972.80;;;;;;5095148;28;20032;-75
2021/04/16 13:46:49;;;;;;;18.67;12.07;;;486.60;972.80;;;;;;5095376;28;20107;-75
2021/04/16 13:49:24;;;;;;;18.50;11.52;;;486.80;998.40;;;;;;5096557;28;20032;-75
2021/04/16 13:51:50;;;;;;;11.73;7.60;;;487.10;1024.00;;;;;;5095416;28;20020;-77
2021/04/16 13:54:18;;;;;;;12.50;8.80;;;487.30;998.40;;;;;;5111208;28;20024;-75
2021/04/16 13:56:44;;;;;;;18.55;12.35;;;487.10;947.20;;;;;;5095556;28;20428;-75
2021/04/16 13:59:09;;;;;;;15.18;10.32;;;487.20;947.20;;;;;;5093970;28;20024;-75
2021/04/16 14:01:36;;;;;;;9.75;6.95;;;487.20;998.40;;;;;;5091695;28;20074;-76
2021/04/16 14:04:06;;;;;;;11.50;7.82;;;487.10;972.80;;;;;;5095177;28;20439;-76
2021/04/16 14:06:37;;;;;;;11.15;8.05;;;486.80;972.80;;;;;;5109675;28;20048;-74
2021/04/16 14:09:07;;;;;;;9.73;6.15;;;486.90;998.40;;;;;;5096287;28;20116;-75
2021/04/16 14:11:34;;;;;;;10.05;6.78;;;487.20;998.40;;;;;;5094087;28;20016;-75
2021/04/16 14:14:11;;;;;;;17.40;11.10;;;461.70;972.80;;;;;;5096618;28;20070;-75
2021/04/16 14:16:40;;;;;;;9.82;6.95;;;461.60;1024.00;;;;;;5095107;28;20075;-74
2021/04/16 14:19:11;;;;;;;13.00;7.95;;;486.70;998.40;;;;;;5096672;28;20031;-75
2021/04/16 14:21:42;;;;;;;14.30;9.52;;;486.80;998.40;;;;;;5094511;28;20028;-75
2021/04/16 14:24:11;;;;;;;12.57;8.15;;;487.10;972.80;;;;;;5096302;28;20110;-75
2021/04/16 14:26:37;;;;;;;10.68;6.88;;;487.30;1024.00;;;;;;5095190;28;20532;-75
2021/04/16 14:29:03;;;;;;;9.73;7.07;;;487.20;972.80;;;;;;5094577;28;20028;-75